»·PEaware :: N3161T KSNA-KVNY

N3161T :: KSNA-KVNY

FLIGHT INFORMATION

Flight Status: Arrived
Operator: Privately registered:
United States
More flights under this callsign
Pilot: Volker H. (8179)
Aircraft: PIPER PA-28R-201 ARROW
(P28R)
More flights by this aircraft type
Origin: KSNA John Wayne-Orange Co
United States
Destination: KVNY Van Nuys
United States
More flights between these airports :: More routes between these airports
Route: +
File this flight plan on PilotEdge
Remarks: Collusem route
Altitude:
(Current/Filed)
8,500ft
Speed:
(Current/Filed)
0kts
Departed: 13-Jan-18 11:25 AM
Arrived: 13-Jan-18 12:06 PM
Distance/Time
Traveled:
45nm/0:41
Distance/Time
To Go:
Arrived

Flight Plot

Page will automatically refresh every two minutes.


Map Options




Map Legend


Flown Route
Filed Route
Departure Airport
Arrival Airport
Navaid (VOR, NDB)
Fix

Horizontal Profiles

Position Reports

Time Latitude Longitude Heading Altitude Ground
Speed
13-Jan-18 11:19 33.672412 -117.865833 125 59ft 0kts
13-Jan-18 11:20 33.672412 -117.865833 125 59ft 0kts
13-Jan-18 11:21 33.672412 -117.865833 125 59ft 0kts
13-Jan-18 11:22 33.672412 -117.865833 125 59ft 0kts
13-Jan-18 11:23 33.672412 -117.865833 125 59ft 0kts
13-Jan-18 11:24 33.672412 -117.865833 125 59ft 0kts
13-Jan-18 11:25 33.672412 -117.865833 125 59ft 0kts
13-Jan-18 11:26 33.672396 -117.865794 106 59ft 2kts
13-Jan-18 11:27 33.673797 -117.867046 325 59ft 5kts
13-Jan-18 11:28 33.679064 -117.864037 26 59ft 23kts
13-Jan-18 11:29 33.679712 -117.863821 321 59ft 0kts
13-Jan-18 11:30 33.679855 -117.864120 293 59ft 7kts
13-Jan-18 11:31 33.667816 -117.872871 227 322ft 84kts
13-Jan-18 11:32 33.656051 -117.898457 242 1175ft 101kts
13-Jan-18 11:33 33.640972 -117.932423 241 1912ft 119kts
13-Jan-18 11:34 33.625934 -117.966272 241 2890ft 111kts
13-Jan-18 11:35 33.610950 -117.998548 219 3873ft 111kts
13-Jan-18 11:36 33.608424 -117.982464 12 4927ft 104kts
13-Jan-18 11:37 33.627389 -117.960519 71 5985ft 106kts
13-Jan-18 11:38 33.637656 -117.922736 71 6513ft 141kts
13-Jan-18 11:39 33.650741 -117.874580 71 6500ft 156kts
13-Jan-18 11:40 33.644224 -117.839228 198 7362ft 120kts
13-Jan-18 11:41 33.646318 -117.872369 293 8369ft 121kts
13-Jan-18 11:42 33.665269 -117.912851 310 8407ft 150kts
13-Jan-18 11:43 33.693205 -117.951559 310 8398ft 154kts
13-Jan-18 11:44 33.721646 -117.990666 314 8397ft 155kts
13-Jan-18 11:45 33.755407 -118.022778 319 8398ft 155kts
13-Jan-18 11:46 33.786229 -118.059002 320 8399ft 155kts
13-Jan-18 11:47 33.820674 -118.090476 322 8398ft 155kts
13-Jan-18 11:48 33.855159 -118.121681 322 8398ft 155kts
13-Jan-18 11:49 33.889737 -118.152969 322 8402ft 155kts
13-Jan-18 11:50 33.924237 -118.184184 322 8405ft 155kts
13-Jan-18 11:51 33.958670 -118.215432 322 8414ft 155kts
13-Jan-18 11:52 33.992494 -118.247926 317 8418ft 155kts
13-Jan-18 11:53 34.024194 -118.283372 316 8417ft 155kts
13-Jan-18 11:54 34.056014 -118.318993 316 8415ft 155kts
13-Jan-18 11:55 34.087727 -118.354490 317 8413ft 155kts
13-Jan-18 11:56 34.119595 -118.390156 317 8157ft 159kts
13-Jan-18 11:57 34.151883 -118.426291 317 7162ft 157kts
13-Jan-18 11:58 34.183997 -118.462226 317 6161ft 156kts
13-Jan-18 11:59 34.209669 -118.502388 283 5234ft 150kts
13-Jan-18 12:00 34.218841 -118.546473 294 5092ft 121kts
13-Jan-18 12:01 34.232440 -118.580280 296 4319ft 149kts
13-Jan-18 12:02 34.254503 -118.634573 296 3100ft 147kts
13-Jan-18 12:03 34.268850 -118.669772 295 3105ft 136kts
13-Jan-18 12:04 34.249343 -118.671548 84 3160ft 129kts
13-Jan-18 12:05 34.259164 -118.628258 82 2571ft 145kts
13-Jan-18 12:06 34.262668 -118.587378 84 1922ft 140kts
13-Jan-18 12:07 34.237405 -118.557425 143 1905ft 116kts
13-Jan-18 12:08 34.216027 -118.538221 143 1890ft 113kts
13-Jan-18 12:09 34.189763 -118.519779 171 1933ft 101kts
13-Jan-18 12:10 34.169858 -118.507172 93 1618ft 83kts
13-Jan-18 12:11 34.188482 -118.490398 12 1014ft 78kts
13-Jan-18 12:12 34.205294 -118.489937 355 805ft 32kts
13-Jan-18 12:13 34.206407 -118.490655 260 805ft 0kts
13-Jan-18 12:14 34.206407 -118.490657 260 805ft 0kts
13-Jan-18 12:15 34.206406 -118.490663 260 805ft 0kts
13-Jan-18 12:16 34.206475 -118.493095 268 805ft 0kts

Navigation Log

Ident Type
1. KSNA Airport
2. KVNY Airport